Armonk, New York
Current Conditions -  °F | °C
As of 12:33 PM on Wednesday 26 Nov 2014 (Local Time) from KHPN Reporting Station
Light Snow Light Snow  
Wind Chill: 27°   Ceiling: 300
Heat Index: 34°   Visibility: 0.5mi
Dew Point: 30°   Wind: 8mph
Humidity: 87%   Direction: 360°N
Pressure: 30.01"   Gusts: NA
Location:  41.13°N, 73.71°W
Report Text: KHPN 261733Z 36007KT 1/2SM R16/P6000FT -SN FG VV003 01/M01 A3001 RMK AO2 P0007
Loading
Personal Weather Stations






























Interactive Weather Map New forecast layout! Learn more

10-Day Weather Forecast

Advertisements
Track Severe Weather on mobile